Terminal Aerodrome Forecast
Issued by NWS Cleveland, OH

Home | Current Version | Previous Version | Text Only | Print | Product List | Glossary Off
Versions: 1 2 3 4 5 6 7 8 9 10 11 12 13 14 15 16 17 18 19 20 21 22 23 24 25 26 27 28 29 30 31

700
FTUS41 KCLE 201356 AAA
TAFCLE
TAF AMD
KCLE 201356Z 2014/2118 11006KT 6SM -RA BR OVC020
      TEMPO 2014/2016 3SM -RA BR OVC012
     FM201600 18006KT P6SM -SHRA OVC007
     FM202300 20006KT P6SM OVC012
     FM210600 18004KT 5SM BR OVC007=

USA.gov is the U.S. government's official web portal to all federal, state and local government web resources and services.